sensor_id;sensor_type;location;lat;lon;timestamp;temperature;humidity
26964;DHT22;14521;48.148;-1.656;2024-01-30T00:02:34;18.20;88.50
26964;DHT22;14521;48.148;-1.656;2024-01-30T00:05:57;18.20;88.60
26964;DHT22;14521;48.148;-1.656;2024-01-30T00:09:21;18.20;88.70
26964;DHT22;14521;48.148;-1.656;2024-01-30T00:12:43;18.20;88.70
26964;DHT22;14521;48.148;-1.656;2024-01-30T00:16:06;18.20;88.70
26964;DHT22;14521;48.148;-1.656;2024-01-30T00:19:28;18.20;88.70
26964;DHT22;14521;48.148;-1.656;2024-01-30T00:22:51;18.20;88.80
26964;DHT22;14521;48.148;-1.656;2024-01-30T00:26:14;18.20;88.80
26964;DHT22;14521;48.148;-1.656;2024-01-30T00:29:39;18.20;88.70
26964;DHT22;14521;48.148;-1.656;2024-01-30T00:33:01;18.20;88.70
26964;DHT22;14521;48.148;-1.656;2024-01-30T00:36:23;18.20;88.80
26964;DHT22;14521;48.148;-1.656;2024-01-30T00:39:46;18.20;88.90
26964;DHT22;14521;48.148;-1.656;2024-01-30T00:43:08;18.20;88.90
26964;DHT22;14521;48.148;-1.656;2024-01-30T00:46:30;18.20;88.90
26964;DHT22;14521;48.148;-1.656;2024-01-30T00:49:53;18.20;88.90
26964;DHT22;14521;48.148;-1.656;2024-01-30T00:53:15;18.20;88.90
26964;DHT22;14521;48.148;-1.656;2024-01-30T00:56:37;18.20;89.00
26964;DHT22;14521;48.148;-1.656;2024-01-30T00:59:59;18.20;89.00
26964;DHT22;14521;48.148;-1.656;2024-01-30T01:03:22;18.20;89.00
26964;DHT22;14521;48.148;-1.656;2024-01-30T01:06:44;18.20;89.10
26964;DHT22;14521;48.148;-1.656;2024-01-30T01:10:07;18.20;89.20
26964;DHT22;14521;48.148;-1.656;2024-01-30T01:13:30;18.20;89.20
26964;DHT22;14521;48.148;-1.656;2024-01-30T01:16:52;18.10;89.20
26964;DHT22;14521;48.148;-1.656;2024-01-30T01:20:15;18.10;89.20
26964;DHT22;14521;48.148;-1.656;2024-01-30T01:23:37;18.10;89.20
26964;DHT22;14521;48.148;-1.656;2024-01-30T01:27:19;18.10;89.20
26964;DHT22;14521;48.148;-1.656;2024-01-30T01:30:41;18.10;90.00
26964;DHT22;14521;48.148;-1.656;2024-01-30T01:34:03;18.10;89.30
26964;DHT22;14521;48.148;-1.656;2024-01-30T01:37:26;18.10;89.20
26964;DHT22;14521;48.148;-1.656;2024-01-30T01:40:48;18.20;89.20
26964;DHT22;14521;48.148;-1.656;2024-01-30T01:44:11;18.20;89.20
26964;DHT22;14521;48.148;-1.656;2024-01-30T01:47:33;18.20;89.10
26964;DHT22;14521;48.148;-1.656;2024-01-30T01:50:55;18.20;89.10
26964;DHT22;14521;48.148;-1.656;2024-01-30T01:54:18;18.20;89.10
26964;DHT22;14521;48.148;-1.656;2024-01-30T01:57:41;18.20;89.10
26964;DHT22;14521;48.148;-1.656;2024-01-30T02:01:04;18.20;89.20
26964;DHT22;14521;48.148;-1.656;2024-01-30T02:04:27;18.20;89.20
26964;DHT22;14521;48.148;-1.656;2024-01-30T02:07:50;18.10;89.20
26964;DHT22;14521;48.148;-1.656;2024-01-30T02:11:13;18.10;89.30
26964;DHT22;14521;48.148;-1.656;2024-01-30T02:14:45;18.20;89.40
26964;DHT22;14521;48.148;-1.656;2024-01-30T02:18:07;18.10;89.30
26964;DHT22;14521;48.148;-1.656;2024-01-30T02:21:30;18.10;89.40
26964;DHT22;14521;48.148;-1.656;2024-01-30T02:24:52;18.10;89.30
26964;DHT22;14521;48.148;-1.656;2024-01-30T02:28:15;18.10;90.00
26964;DHT22;14521;48.148;-1.656;2024-01-30T02:31:37;18.10;89.20
26964;DHT22;14521;48.148;-1.656;2024-01-30T02:35:00;18.10;89.20
26964;DHT22;14521;48.148;-1.656;2024-01-30T02:38:22;18.10;89.20
26964;DHT22;14521;48.148;-1.656;2024-01-30T02:41:45;18.10;89.30
26964;DHT22;14521;48.148;-1.656;2024-01-30T02:45:08;18.10;89.20
26964;DHT22;14521;48.148;-1.656;2024-01-30T02:48:30;18.10;89.20
26964;DHT22;14521;48.148;-1.656;2024-01-30T02:51:54;18.10;89.30
26964;DHT22;14521;48.148;-1.656;2024-01-30T02:55:16;18.10;89.30
26964;DHT22;14521;48.148;-1.656;2024-01-30T02:58:42;18.10;89.20
26964;DHT22;14521;48.148;-1.656;2024-01-30T03:02:04;18.10;89.40
26964;DHT22;14521;48.148;-1.656;2024-01-30T03:05:27;18.10;89.30
26964;DHT22;14521;48.148;-1.656;2024-01-30T03:08:49;18.10;89.20
26964;DHT22;14521;48.148;-1.656;2024-01-30T03:12:11;18.10;89.20
26964;DHT22;14521;48.148;-1.656;2024-01-30T03:15:33;18.10;89.20
26964;DHT22;14521;48.148;-1.656;2024-01-30T03:18:55;18.10;89.10
26964;DHT22;14521;48.148;-1.656;2024-01-30T03:22:18;18.10;89.20
26964;DHT22;14521;48.148;-1.656;2024-01-30T03:25:40;18.10;88.90
26964;DHT22;14521;48.148;-1.656;2024-01-30T03:29:03;18.10;89.10
26964;DHT22;14521;48.148;-1.656;2024-01-30T03:32:25;18.10;88.90
26964;DHT22;14521;48.148;-1.656;2024-01-30T03:35:47;18.10;88.90
26964;DHT22;14521;48.148;-1.656;2024-01-30T03:39:10;18.00;88.90
26964;DHT22;14521;48.148;-1.656;2024-01-30T03:42:32;18.00;89.10
26964;DHT22;14521;48.148;-1.656;2024-01-30T03:45:54;18.00;89.00
26964;DHT22;14521;48.148;-1.656;2024-01-30T03:49:16;18.00;88.80
26964;DHT22;14521;48.148;-1.656;2024-01-30T03:52:39;18.00;88.90
26964;DHT22;14521;48.148;-1.656;2024-01-30T03:56:01;18.00;88.80
26964;DHT22;14521;48.148;-1.656;2024-01-30T03:59:25;18.00;88.80
26964;DHT22;14521;48.148;-1.656;2024-01-30T04:02:47;18.00;88.80
26964;DHT22;14521;48.148;-1.656;2024-01-30T04:06:09;18.00;88.60
26964;DHT22;14521;48.148;-1.656;2024-01-30T04:09:32;18.00;88.50
26964;DHT22;14521;48.148;-1.656;2024-01-30T04:12:55;18.00;88.60
26964;DHT22;14521;48.148;-1.656;2024-01-30T04:16:21;18.00;88.60
26964;DHT22;14521;48.148;-1.656;2024-01-30T04:19:44;18.00;88.70
26964;DHT22;14521;48.148;-1.656;2024-01-30T04:23:07;18.00;88.60
26964;DHT22;14521;48.148;-1.656;2024-01-30T04:26:29;18.00;88.70
26964;DHT22;14521;48.148;-1.656;2024-01-30T04:29:51;18.00;88.80
26964;DHT22;14521;48.148;-1.656;2024-01-30T04:33:13;18.00;88.60
26964;DHT22;14521;48.148;-1.656;2024-01-30T04:36:36;18.00;88.50
26964;DHT22;14521;48.148;-1.656;2024-01-30T04:39:58;18.00;88.30
26964;DHT22;14521;48.148;-1.656;2024-01-30T04:43:21;18.00;88.50
26964;DHT22;14521;48.148;-1.656;2024-01-30T04:46:43;18.00;88.50
26964;DHT22;14521;48.148;-1.656;2024-01-30T04:50:08;18.00;88.40
26964;DHT22;14521;48.148;-1.656;2024-01-30T04:53:31;18.00;88.40
26964;DHT22;14521;48.148;-1.656;2024-01-30T04:56:53;18.00;88.30
26964;DHT22;14521;48.148;-1.656;2024-01-30T05:00:15;17.90;88.10
26964;DHT22;14521;48.148;-1.656;2024-01-30T05:03:38;17.90;88.30
26964;DHT22;14521;48.148;-1.656;2024-01-30T05:07:00;18.00;88.20
26964;DHT22;14521;48.148;-1.656;2024-01-30T05:10:22;18.00;88.10
26964;DHT22;14521;48.148;-1.656;2024-01-30T05:13:45;18.00;87.80
26964;DHT22;14521;48.148;-1.656;2024-01-30T05:17:07;18.10;87.50
26964;DHT22;14521;48.148;-1.656;2024-01-30T05:20:32;18.10;87.20
26964;DHT22;14521;48.148;-1.656;2024-01-30T05:23:54;18.20;87.10
26964;DHT22;14521;48.148;-1.656;2024-01-30T05:27:16;18.20;86.90
26964;DHT22;14521;48.148;-1.656;2024-01-30T05:30:39;18.20;86.80
26964;DHT22;14521;48.148;-1.656;2024-01-30T05:34:01;18.20;86.80
26964;DHT22;14521;48.148;-1.656;2024-01-30T05:37:24;18.30;86.70
26964;DHT22;14521;48.148;-1.656;2024-01-30T05:40:47;18.30;86.60
26964;DHT22;14521;48.148;-1.656;2024-01-30T05:44:09;18.30;86.60
26964;DHT22;14521;48.148;-1.656;2024-01-30T05:47:31;18.30;86.50
26964;DHT22;14521;48.148;-1.656;2024-01-30T05:50:54;18.30;86.40
26964;DHT22;14521;48.148;-1.656;2024-01-30T05:54:17;18.30;86.30
26964;DHT22;14521;48.148;-1.656;2024-01-30T05:57:39;18.30;86.20
26964;DHT22;14521;48.148;-1.656;2024-01-30T06:01:02;18.30;86.40
26964;DHT22;14521;48.148;-1.656;2024-01-30T06:04:24;18.40;86.20
26964;DHT22;14521;48.148;-1.656;2024-01-30T06:07:46;18.40;86.20
26964;DHT22;14521;48.148;-1.656;2024-01-30T06:11:12;18.40;87.10
26964;DHT22;14521;48.148;-1.656;2024-01-30T06:14:34;18.40;86.20
26964;DHT22;14521;48.148;-1.656;2024-01-30T06:17:56;18.40;86.10
26964;DHT22;14521;48.148;-1.656;2024-01-30T06:21:19;18.40;86.10
26964;DHT22;14521;48.148;-1.656;2024-01-30T06:24:41;18.40;86.10
26964;DHT22;14521;48.148;-1.656;2024-01-30T06:28:03;18.40;86.90
26964;DHT22;14521;48.148;-1.656;2024-01-30T06:31:26;18.40;86.10
26964;DHT22;14521;48.148;-1.656;2024-01-30T06:34:48;18.40;86.00
26964;DHT22;14521;48.148;-1.656;2024-01-30T06:38:11;18.40;86.20
26964;DHT22;14521;48.148;-1.656;2024-01-30T06:41:33;18.40;86.10
26964;DHT22;14521;48.148;-1.656;2024-01-30T06:44:55;18.40;86.00
26964;DHT22;14521;48.148;-1.656;2024-01-30T06:48:18;18.40;86.10
26964;DHT22;14521;48.148;-1.656;2024-01-30T06:51:40;18.40;86.10
26964;DHT22;14521;48.148;-1.656;2024-01-30T06:55:02;18.40;86.10
26964;DHT22;14521;48.148;-1.656;2024-01-30T06:58:25;18.40;86.10
26964;DHT22;14521;48.148;-1.656;2024-01-30T07:01:47;18.40;86.10
26964;DHT22;14521;48.148;-1.656;2024-01-30T07:05:10;18.40;86.10
26964;DHT22;14521;48.148;-1.656;2024-01-30T07:08:32;18.40;86.10
26964;DHT22;14521;48.148;-1.656;2024-01-30T07:11:55;18.30;86.10
26964;DHT22;14521;48.148;-1.656;2024-01-30T07:15:17;18.30;86.00
26964;DHT22;14521;48.148;-1.656;2024-01-30T07:18:43;18.30;86.10
26964;DHT22;14521;48.148;-1.656;2024-01-30T07:22:05;18.30;86.10
26964;DHT22;14521;48.148;-1.656;2024-01-30T07:25:28;18.30;86.10
26964;DHT22;14521;48.148;-1.656;2024-01-30T07:28:51;18.30;86.10
26964;DHT22;14521;48.148;-1.656;2024-01-30T07:32:14;18.30;86.10
26964;DHT22;14521;48.148;-1.656;2024-01-30T07:35:36;18.30;86.10
26964;DHT22;14521;48.148;-1.656;2024-01-30T07:38:59;18.30;86.00
26964;DHT22;14521;48.148;-1.656;2024-01-30T07:42:21;18.30;86.10
26964;DHT22;14521;48.148;-1.656;2024-01-30T07:45:43;18.30;86.10
26964;DHT22;14521;48.148;-1.656;2024-01-30T07:49:05;18.30;86.10
26964;DHT22;14521;48.148;-1.656;2024-01-30T07:52:28;18.30;86.20
26964;DHT22;14521;48.148;-1.656;2024-01-30T07:55:52;18.20;86.10
26964;DHT22;14521;48.148;-1.656;2024-01-30T07:59:14;18.20;86.00
26964;DHT22;14521;48.148;-1.656;2024-01-30T08:02:36;18.20;86.00
26964;DHT22;14521;48.148;-1.656;2024-01-30T08:05:58;18.20;86.00
26964;DHT22;14521;48.148;-1.656;2024-01-30T08:09:21;18.20;86.00
26964;DHT22;14521;48.148;-1.656;2024-01-30T08:12:43;18.20;86.00
26964;DHT22;14521;48.148;-1.656;2024-01-30T08:16:06;18.20;86.00
26964;DHT22;14521;48.148;-1.656;2024-01-30T08:19:28;18.20;85.90
26964;DHT22;14521;48.148;-1.656;2024-01-30T08:22:52;18.20;85.90
26964;DHT22;14521;48.148;-1.656;2024-01-30T08:26:14;18.20;85.80
26964;DHT22;14521;48.148;-1.656;2024-01-30T08:29:36;18.20;86.00
26964;DHT22;14521;48.148;-1.656;2024-01-30T08:32:58;18.20;86.00
26964;DHT22;14521;48.148;-1.656;2024-01-30T08:36:21;18.20;85.70
26964;DHT22;14521;48.148;-1.656;2024-01-30T08:39:44;18.30;85.40
26964;DHT22;14521;48.148;-1.656;2024-01-30T08:43:06;18.40;86.10
26964;DHT22;14521;48.148;-1.656;2024-01-30T08:46:28;18.40;85.10
26964;DHT22;14521;48.148;-1.656;2024-01-30T08:49:51;18.40;84.90
26964;DHT22;14521;48.148;-1.656;2024-01-30T08:53:14;18.50;84.90
26964;DHT22;14521;48.148;-1.656;2024-01-30T08:56:36;18.50;85.70
26964;DHT22;14521;48.148;-1.656;2024-01-30T08:59:58;18.50;84.80
26964;DHT22;14521;48.148;-1.656;2024-01-30T09:03:20;18.50;84.80
26964;DHT22;14521;48.148;-1.656;2024-01-30T09:06:43;18.50;84.90
26964;DHT22;14521;48.148;-1.656;2024-01-30T09:10:05;18.50;85.00
26964;DHT22;14521;48.148;-1.656;2024-01-30T09:13:29;18.50;84.70
26964;DHT22;14521;48.148;-1.656;2024-01-30T09:16:51;18.60;84.40
26964;DHT22;14521;48.148;-1.656;2024-01-30T09:20:14;18.70;84.10
26964;DHT22;14521;48.148;-1.656;2024-01-30T09:23:36;18.70;83.90
26964;DHT22;14521;48.148;-1.656;2024-01-30T09:26:58;18.80;83.70
26964;DHT22;14521;48.148;-1.656;2024-01-30T09:30:21;18.70;83.70
26964;DHT22;14521;48.148;-1.656;2024-01-30T09:33:43;18.70;84.10
26964;DHT22;14521;48.148;-1.656;2024-01-30T09:37:09;18.60;84.20
26964;DHT22;14521;48.148;-1.656;2024-01-30T09:40:31;18.60;84.50
26964;DHT22;14521;48.148;-1.656;2024-01-30T09:43:54;18.50;84.70
26964;DHT22;14521;48.148;-1.656;2024-01-30T09:47:19;18.50;84.70
26964;DHT22;14521;48.148;-1.656;2024-01-30T09:50:41;18.40;84.80
26964;DHT22;14521;48.148;-1.656;2024-01-30T09:54:04;18.40;84.90
26964;DHT22;14521;48.148;-1.656;2024-01-30T09:57:26;18.40;84.90
26964;DHT22;14521;48.148;-1.656;2024-01-30T10:00:48;18.40;84.80
26964;DHT22;14521;48.148;-1.656;2024-01-30T10:04:11;18.40;84.80
26964;DHT22;14521;48.148;-1.656;2024-01-30T10:07:33;18.40;84.80
26964;DHT22;14521;48.148;-1.656;2024-01-30T10:10:56;18.40;84.70
26964;DHT22;14521;48.148;-1.656;2024-01-30T10:14:20;18.40;84.70
26964;DHT22;14521;48.148;-1.656;2024-01-30T10:17:44;18.40;84.70
26964;DHT22;14521;48.148;-1.656;2024-01-30T10:21:08;18.40;84.60
26964;DHT22;14521;48.148;-1.656;2024-01-30T10:24:31;18.40;84.50
26964;DHT22;14521;48.148;-1.656;2024-01-30T10:27:53;18.40;84.50
26964;DHT22;14521;48.148;-1.656;2024-01-30T10:31:17;18.40;84.70
26964;DHT22;14521;48.148;-1.656;2024-01-30T10:34:40;18.40;84.50
26964;DHT22;14521;48.148;-1.656;2024-01-30T10:38:03;18.40;84.70
26964;DHT22;14521;48.148;-1.656;2024-01-30T10:41:31;18.40;84.70
26964;DHT22;14521;48.148;-1.656;2024-01-30T10:45:09;18.40;84.60
26964;DHT22;14521;48.148;-1.656;2024-01-30T10:48:32;18.40;84.60
26964;DHT22;14521;48.148;-1.656;2024-01-30T10:51:59;18.40;84.50
26964;DHT22;14521;48.148;-1.656;2024-01-30T10:55:22;18.40;84.40
26964;DHT22;14521;48.148;-1.656;2024-01-30T10:58:47;18.40;84.50
26964;DHT22;14521;48.148;-1.656;2024-01-30T11:02:10;18.40;84.50
26964;DHT22;14521;48.148;-1.656;2024-01-30T11:05:33;18.40;84.40
26964;DHT22;14521;48.148;-1.656;2024-01-30T11:09:05;18.40;84.60
26964;DHT22;14521;48.148;-1.656;2024-01-30T11:12:37;18.40;84.70
26964;DHT22;14521;48.148;-1.656;2024-01-30T11:16:04;18.40;84.70
26964;DHT22;14521;48.148;-1.656;2024-01-30T11:19:27;18.40;84.80
26964;DHT22;14521;48.148;-1.656;2024-01-30T11:22:51;18.40;84.80
26964;DHT22;14521;48.148;-1.656;2024-01-30T11:26:14;18.40;84.70
26964;DHT22;14521;48.148;-1.656;2024-01-30T11:29:36;18.40;85.40
26964;DHT22;14521;48.148;-1.656;2024-01-30T11:33:10;18.40;84.70
26964;DHT22;14521;48.148;-1.656;2024-01-30T11:36:34;18.40;84.80
26964;DHT22;14521;48.148;-1.656;2024-01-30T11:39:59;18.40;84.70
26964;DHT22;14521;48.148;-1.656;2024-01-30T11:43:21;18.50;84.70
26964;DHT22;14521;48.148;-1.656;2024-01-30T11:46:44;18.50;84.40
26964;DHT22;14521;48.148;-1.656;2024-01-30T11:50:06;18.50;84.50
26964;DHT22;14521;48.148;-1.656;2024-01-30T11:53:30;18.50;84.40
26964;DHT22;14521;48.148;-1.656;2024-01-30T11:56:52;18.50;84.40
26964;DHT22;14521;48.148;-1.656;2024-01-30T12:00:16;18.50;84.20
26964;DHT22;14521;48.148;-1.656;2024-01-30T12:03:38;18.50;84.30
26964;DHT22;14521;48.148;-1.656;2024-01-30T12:07:02;18.50;84.30
26964;DHT22;14521;48.148;-1.656;2024-01-30T12:10:25;18.50;84.40
26964;DHT22;14521;48.148;-1.656;2024-01-30T12:13:50;18.50;84.50
26964;DHT22;14521;48.148;-1.656;2024-01-30T12:17:23;18.50;84.60
26964;DHT22;14521;48.148;-1.656;2024-01-30T12:20:57;18.50;84.60
26964;DHT22;14521;48.148;-1.656;2024-01-30T12:24:20;18.50;84.50
26964;DHT22;14521;48.148;-1.656;2024-01-30T12:27:49;18.50;84.50
26964;DHT22;14521;48.148;-1.656;2024-01-30T12:31:13;18.50;84.60
26964;DHT22;14521;48.148;-1.656;2024-01-30T12:34:40;18.50;84.50
26964;DHT22;14521;48.148;-1.656;2024-01-30T12:38:18;18.50;84.40
26964;DHT22;14521;48.148;-1.656;2024-01-30T12:41:41;18.50;84.50
26964;DHT22;14521;48.148;-1.656;2024-01-30T12:45:04;18.50;84.40
26964;DHT22;14521;48.148;-1.656;2024-01-30T12:48:27;18.50;84.40
26964;DHT22;14521;48.148;-1.656;2024-01-30T12:51:51;18.50;84.40
26964;DHT22;14521;48.148;-1.656;2024-01-30T12:55:14;18.50;84.60
26964;DHT22;14521;48.148;-1.656;2024-01-30T12:58:37;18.50;84.60
26964;DHT22;14521;48.148;-1.656;2024-01-30T13:02:00;18.40;84.40
26964;DHT22;14521;48.148;-1.656;2024-01-30T13:05:23;18.50;84.30
26964;DHT22;14521;48.148;-1.656;2024-01-30T13:08:46;18.40;84.30
26964;DHT22;14521;48.148;-1.656;2024-01-30T13:12:08;18.40;84.20
26964;DHT22;14521;48.148;-1.656;2024-01-30T13:15:30;18.40;84.20
26964;DHT22;14521;48.148;-1.656;2024-01-30T13:18:53;18.50;84.20
26964;DHT22;14521;48.148;-1.656;2024-01-30T13:22:17;18.50;83.90
26964;DHT22;14521;48.148;-1.656;2024-01-30T13:25:39;18.40;83.90
26964;DHT22;14521;48.148;-1.656;2024-01-30T13:29:02;18.50;84.10
26964;DHT22;14521;48.148;-1.656;2024-01-30T13:32:25;18.50;83.90
26964;DHT22;14521;48.148;-1.656;2024-01-30T13:35:48;18.40;83.90
26964;DHT22;14521;48.148;-1.656;2024-01-30T13:39:10;18.40;83.90
26964;DHT22;14521;48.148;-1.656;2024-01-30T13:42:34;18.40;83.90
26964;DHT22;14521;48.148;-1.656;2024-01-30T13:45:57;18.40;83.90
26964;DHT22;14521;48.148;-1.656;2024-01-30T13:49:20;18.50;83.70
26964;DHT22;14521;48.148;-1.656;2024-01-30T13:52:43;18.60;83.50
26964;DHT22;14521;48.148;-1.656;2024-01-30T13:56:07;18.50;83.60
26964;DHT22;14521;48.148;-1.656;2024-01-30T13:59:29;18.50;83.60
26964;DHT22;14521;48.148;-1.656;2024-01-30T14:02:52;18.50;83.90
26964;DHT22;14521;48.148;-1.656;2024-01-30T14:06:16;18.40;83.80
26964;DHT22;14521;48.148;-1.656;2024-01-30T14:09:39;18.40;83.70
26964;DHT22;14521;48.148;-1.656;2024-01-30T14:13:01;18.40;83.70
26964;DHT22;14521;48.148;-1.656;2024-01-30T14:16:26;18.40;83.50
26964;DHT22;14521;48.148;-1.656;2024-01-30T14:19:50;18.40;83.70
26964;DHT22;14521;48.148;-1.656;2024-01-30T14:23:13;18.40;83.70
26964;DHT22;14521;48.148;-1.656;2024-01-30T14:26:35;18.40;83.50
26964;DHT22;14521;48.148;-1.656;2024-01-30T14:29:58;18.40;83.60
26964;DHT22;14521;48.148;-1.656;2024-01-30T14:33:21;18.40;83.40
26964;DHT22;14521;48.148;-1.656;2024-01-30T14:36:48;18.40;83.40
26964;DHT22;14521;48.148;-1.656;2024-01-30T14:40:11;18.40;83.20
26964;DHT22;14521;48.148;-1.656;2024-01-30T14:43:33;18.40;83.30
26964;DHT22;14521;48.148;-1.656;2024-01-30T14:46:56;18.40;83.30
26964;DHT22;14521;48.148;-1.656;2024-01-30T14:50:18;18.40;83.10
26964;DHT22;14521;48.148;-1.656;2024-01-30T14:53:41;18.40;83.00
26964;DHT22;14521;48.148;-1.656;2024-01-30T14:57:03;18.40;83.00
26964;DHT22;14521;48.148;-1.656;2024-01-30T15:00:26;18.50;83.10
26964;DHT22;14521;48.148;-1.656;2024-01-30T15:03:48;18.40;83.10
26964;DHT22;14521;48.148;-1.656;2024-01-30T15:07:11;18.40;83.30
26964;DHT22;14521;48.148;-1.656;2024-01-30T15:10:36;18.40;83.10
26964;DHT22;14521;48.148;-1.656;2024-01-30T15:13:58;18.40;83.20
26964;DHT22;14521;48.148;-1.656;2024-01-30T15:17:20;18.40;83.10
26964;DHT22;14521;48.148;-1.656;2024-01-30T15:20:45;18.40;83.20
26964;DHT22;14521;48.148;-1.656;2024-01-30T15:24:08;18.40;83.20
26964;DHT22;14521;48.148;-1.656;2024-01-30T15:27:30;18.40;83.20
26964;DHT22;14521;48.148;-1.656;2024-01-30T15:30:52;18.40;83.00
26964;DHT22;14521;48.148;-1.656;2024-01-30T15:34:15;18.30;82.90
26964;DHT22;14521;48.148;-1.656;2024-01-30T15:37:38;18.40;83.10
26964;DHT22;14521;48.148;-1.656;2024-01-30T15:41:00;18.30;83.00
26964;DHT22;14521;48.148;-1.656;2024-01-30T15:44:22;18.30;82.90
26964;DHT22;14521;48.148;-1.656;2024-01-30T15:47:45;18.40;82.90
26964;DHT22;14521;48.148;-1.656;2024-01-30T15:51:07;18.40;82.90
26964;DHT22;14521;48.148;-1.656;2024-01-30T15:54:29;18.40;82.90
26964;DHT22;14521;48.148;-1.656;2024-01-30T15:57:51;18.30;83.00
26964;DHT22;14521;48.148;-1.656;2024-01-30T16:01:14;18.40;83.10
26964;DHT22;14521;48.148;-1.656;2024-01-30T16:04:36;18.30;82.90
26964;DHT22;14521;48.148;-1.656;2024-01-30T16:07:59;18.30;83.00
26964;DHT22;14521;48.148;-1.656;2024-01-30T16:11:21;18.30;82.90
26964;DHT22;14521;48.148;-1.656;2024-01-30T16:14:44;18.30;82.80
26964;DHT22;14521;48.148;-1.656;2024-01-30T16:18:06;18.30;82.90
26964;DHT22;14521;48.148;-1.656;2024-01-30T16:21:28;18.30;82.80
26964;DHT22;14521;48.148;-1.656;2024-01-30T16:24:51;18.40;82.60
26964;DHT22;14521;48.148;-1.656;2024-01-30T16:28:13;18.30;82.80
26964;DHT22;14521;48.148;-1.656;2024-01-30T16:31:35;18.30;82.60
26964;DHT22;14521;48.148;-1.656;2024-01-30T16:34:58;18.30;82.50
26964;DHT22;14521;48.148;-1.656;2024-01-30T16:38:21;18.30;82.50
26964;DHT22;14521;48.148;-1.656;2024-01-30T16:41:43;18.30;82.70
26964;DHT22;14521;48.148;-1.656;2024-01-30T16:45:05;18.30;82.80
26964;DHT22;14521;48.148;-1.656;2024-01-30T16:48:27;18.30;82.80
26964;DHT22;14521;48.148;-1.656;2024-01-30T16:51:51;18.30;82.80
26964;DHT22;14521;48.148;-1.656;2024-01-30T16:55:13;18.30;82.70
26964;DHT22;14521;48.148;-1.656;2024-01-30T16:58:35;18.30;82.70
26964;DHT22;14521;48.148;-1.656;2024-01-30T17:01:58;18.30;82.50
26964;DHT22;14521;48.148;-1.656;2024-01-30T17:05:20;18.30;82.50
26964;DHT22;14521;48.148;-1.656;2024-01-30T17:08:49;18.30;82.50
26964;DHT22;14521;48.148;-1.656;2024-01-30T17:12:11;18.20;82.40
26964;DHT22;14521;48.148;-1.656;2024-01-30T17:15:35;18.20;82.50
26964;DHT22;14521;48.148;-1.656;2024-01-30T17:18:57;18.20;82.40
26964;DHT22;14521;48.148;-1.656;2024-01-30T17:22:20;18.20;82.30
26964;DHT22;14521;48.148;-1.656;2024-01-30T17:25:43;18.20;82.40
26964;DHT22;14521;48.148;-1.656;2024-01-30T17:29:06;18.20;82.50
26964;DHT22;14521;48.148;-1.656;2024-01-30T17:32:29;18.20;82.30
26964;DHT22;14521;48.148;-1.656;2024-01-30T17:35:52;18.20;82.30
26964;DHT22;14521;48.148;-1.656;2024-01-30T17:39:14;18.20;82.40
26964;DHT22;14521;48.148;-1.656;2024-01-30T17:42:36;18.20;82.30
26964;DHT22;14521;48.148;-1.656;2024-01-30T17:45:59;18.20;82.30
26964;DHT22;14521;48.148;-1.656;2024-01-30T17:49:21;18.20;82.30
26964;DHT22;14521;48.148;-1.656;2024-01-30T17:52:44;18.20;82.40
26964;DHT22;14521;48.148;-1.656;2024-01-30T17:56:06;18.20;82.30
26964;DHT22;14521;48.148;-1.656;2024-01-30T17:59:30;18.20;82.20
26964;DHT22;14521;48.148;-1.656;2024-01-30T18:02:52;18.20;82.30
26964;DHT22;14521;48.148;-1.656;2024-01-30T18:06:14;18.20;82.30
26964;DHT22;14521;48.148;-1.656;2024-01-30T18:09:37;18.20;81.70
26964;DHT22;14521;48.148;-1.656;2024-01-30T18:13:00;18.20;81.50
26964;DHT22;14521;48.148;-1.656;2024-01-30T18:16:23;18.30;81.30
26964;DHT22;14521;48.148;-1.656;2024-01-30T18:19:46;18.30;81.10
26964;DHT22;14521;48.148;-1.656;2024-01-30T18:23:09;18.30;80.90
26964;DHT22;14521;48.148;-1.656;2024-01-30T18:26:31;18.30;80.90
26964;DHT22;14521;48.148;-1.656;2024-01-30T18:29:54;18.30;80.60
26964;DHT22;14521;48.148;-1.656;2024-01-30T18:33:19;18.40;80.60
26964;DHT22;14521;48.148;-1.656;2024-01-30T18:36:41;18.40;80.60
26964;DHT22;14521;48.148;-1.656;2024-01-30T18:40:05;18.50;81.40
26964;DHT22;14521;48.148;-1.656;2024-01-30T18:43:27;18.40;80.40
26964;DHT22;14521;48.148;-1.656;2024-01-30T18:46:50;18.40;80.50
26964;DHT22;14521;48.148;-1.656;2024-01-30T18:50:12;18.50;80.40
26964;DHT22;14521;48.148;-1.656;2024-01-30T18:53:34;18.50;80.50
26964;DHT22;14521;48.148;-1.656;2024-01-30T18:56:57;18.50;80.60
26964;DHT22;14521;48.148;-1.656;2024-01-30T19:00:20;18.50;80.60
26964;DHT22;14521;48.148;-1.656;2024-01-30T19:03:42;18.50;80.80
26964;DHT22;14521;48.148;-1.656;2024-01-30T19:07:04;18.50;80.60
26964;DHT22;14521;48.148;-1.656;2024-01-30T19:10:26;18.50;80.50
26964;DHT22;14521;48.148;-1.656;2024-01-30T19:14:03;18.50;80.60
26964;DHT22;14521;48.148;-1.656;2024-01-30T19:17:25;18.50;80.40
26964;DHT22;14521;48.148;-1.656;2024-01-30T19:20:47;18.50;80.60
26964;DHT22;14521;48.148;-1.656;2024-01-30T19:24:10;18.50;80.50
26964;DHT22;14521;48.148;-1.656;2024-01-30T19:27:32;18.50;80.40
26964;DHT22;14521;48.148;-1.656;2024-01-30T19:30:55;18.50;80.50
26964;DHT22;14521;48.148;-1.656;2024-01-30T19:34:18;18.50;80.40
26964;DHT22;14521;48.148;-1.656;2024-01-30T19:37:40;18.50;80.50
26964;DHT22;14521;48.148;-1.656;2024-01-30T19:41:03;18.50;80.50
26964;DHT22;14521;48.148;-1.656;2024-01-30T19:44:27;18.50;80.40
26964;DHT22;14521;48.148;-1.656;2024-01-30T19:47:49;18.50;80.50
26964;DHT22;14521;48.148;-1.656;2024-01-30T19:51:14;18.50;80.60
26964;DHT22;14521;48.148;-1.656;2024-01-30T19:54:37;18.50;80.60
26964;DHT22;14521;48.148;-1.656;2024-01-30T19:58:00;18.50;80.60
26964;DHT22;14521;48.148;-1.656;2024-01-30T20:01:26;18.50;80.50
26964;DHT22;14521;48.148;-1.656;2024-01-30T20:04:49;18.50;80.60
26964;DHT22;14521;48.148;-1.656;2024-01-30T20:08:12;18.50;80.70
26964;DHT22;14521;48.148;-1.656;2024-01-30T20:11:36;18.50;80.50
26964;DHT22;14521;48.148;-1.656;2024-01-30T20:14:59;18.50;80.40
26964;DHT22;14521;48.148;-1.656;2024-01-30T20:18:21;18.50;80.60
26964;DHT22;14521;48.148;-1.656;2024-01-30T20:21:44;18.40;80.50
26964;DHT22;14521;48.148;-1.656;2024-01-30T20:25:09;18.40;80.60
26964;DHT22;14521;48.148;-1.656;2024-01-30T20:28:40;18.40;80.50
26964;DHT22;14521;48.148;-1.656;2024-01-30T20:32:03;18.40;80.70
26964;DHT22;14521;48.148;-1.656;2024-01-30T20:35:26;18.40;80.60
26964;DHT22;14521;48.148;-1.656;2024-01-30T20:38:48;18.40;80.60
26964;DHT22;14521;48.148;-1.656;2024-01-30T20:42:10;18.40;80.70
26964;DHT22;14521;48.148;-1.656;2024-01-30T20:45:33;18.40;80.70
26964;DHT22;14521;48.148;-1.656;2024-01-30T20:48:55;18.40;80.80
26964;DHT22;14521;48.148;-1.656;2024-01-30T20:52:17;18.30;80.70
26964;DHT22;14521;48.148;-1.656;2024-01-30T20:55:40;18.40;80.70
26964;DHT22;14521;48.148;-1.656;2024-01-30T20:59:02;18.30;80.70
26964;DHT22;14521;48.148;-1.656;2024-01-30T21:02:24;18.30;80.50